createdAt,value
2018-11-22T00:16:47.077Z,58.50
2018-11-22T00:29:54.233Z,58.20
2018-11-22T00:43:01.362Z,58.20
2018-11-22T00:56:08.514Z,58.00
2018-11-22T01:09:15.667Z,58.60
2018-11-22T01:22:22.814Z,57.90
2018-11-22T01:35:29.967Z,57.70
2018-11-22T01:48:37.123Z,58.20
2018-11-22T02:01:44.238Z,57.40
2018-11-22T02:14:51.381Z,57.30
2018-11-22T02:27:58.527Z,57.10
2018-11-22T02:41:05.683Z,56.90
2018-11-22T02:54:12.826Z,56.80
2018-11-22T03:07:20.029Z,56.80
2018-11-22T03:20:27.189Z,56.60
2018-11-22T03:33:34.366Z,56.60
2018-11-22T03:46:41.531Z,56.30
2018-11-22T03:59:48.672Z,56.20
2018-11-22T04:12:55.830Z,56.10
2018-11-22T04:26:02.991Z,56.00
2018-11-22T04:39:10.125Z,55.90
2018-11-22T04:52:17.250Z,55.80
2018-11-22T05:05:24.398Z,55.80
2018-11-22T05:18:31.560Z,55.60
2018-11-22T05:31:38.695Z,55.40
2018-11-22T05:44:45.867Z,55.40
2018-11-22T05:57:53.007Z,55.20
2018-11-22T06:11:00.431Z,55.10
2018-11-22T06:24:07.586Z,51.80
2018-11-22T06:37:14.742Z,50.00
2018-11-22T06:50:21.859Z,49.70
2018-11-22T07:03:29.024Z,48.20
2018-11-22T07:16:36.180Z,48.50
2018-11-22T07:29:43.331Z,49.00
2018-11-22T07:42:50.683Z,50.00
2018-11-22T07:55:57.665Z,50.50
2018-11-22T08:22:07.707Z,50.30
2018-11-22T08:35:17.091Z,50.50
2018-11-22T08:54:52.874Z,51.10
2018-11-22T09:17:37.860Z,50.40
2018-11-22T09:30:45.075Z,50.30
2018-11-22T10:24:37.654Z,51.80
2018-11-22T10:37:45.010Z,52.20
2018-11-22T10:52:23.193Z,52.90
2018-11-22T11:31:35.657Z,53.40
2018-11-22T11:44:42.871Z,53.30
2018-11-22T11:57:50.093Z,53.50
2018-11-22T12:10:57.319Z,53.60
2018-11-22T12:28:52.603Z,52.50
2018-11-22T12:41:59.785Z,51.80
2018-11-22T12:55:06.958Z,52.90
2018-11-22T13:21:17.123Z,53.50
2018-11-22T13:34:24.322Z,53.60
2018-11-22T13:47:31.476Z,53.60
2018-11-22T14:00:38.680Z,53.60
2018-11-22T14:13:45.861Z,53.60
2018-11-22T14:26:53.176Z,53.50
2018-11-22T14:40:00.509Z,53.60
2018-11-22T14:53:07.768Z,53.10
2018-11-22T15:19:17.243Z,53.10
2018-11-22T15:32:24.412Z,53.00
2018-11-22T15:45:35.005Z,53.00
2018-11-22T15:58:38.931Z,53.10
2018-11-22T16:24:48.508Z,53.10
2018-11-22T16:37:55.824Z,53.20
2018-11-22T16:51:03.001Z,53.30
2018-11-22T17:17:13.124Z,53.30
2018-11-22T17:30:20.268Z,53.30
2018-11-22T17:43:27.465Z,53.30
2018-11-22T17:56:34.672Z,53.20
2018-11-22T18:09:41.830Z,53.10
2018-11-22T18:22:49.000Z,53.10
2018-11-22T18:35:56.302Z,53.20
2018-11-22T18:49:03.447Z,53.30
2018-11-22T19:02:10.579Z,49.40
2018-11-22T19:15:17.755Z,46.60
2018-11-22T19:28:24.930Z,48.50
2018-11-22T19:41:32.082Z,49.50
2018-11-22T19:54:39.251Z,50.20
2018-11-22T20:07:46.464Z,51.50
2018-11-22T20:20:53.626Z,52.60
2018-11-22T20:34:00.791Z,53.20
2018-11-22T20:47:07.943Z,53.10
2018-11-22T21:00:15.091Z,53.40
2018-11-22T21:13:22.265Z,53.90
2018-11-22T21:26:29.405Z,54.20
2018-11-22T21:39:36.582Z,54.10
2018-11-22T21:52:43.735Z,55.20
2018-11-22T22:05:51.032Z,56.40
2018-11-22T22:18:58.228Z,57.30
2018-11-22T22:32:05.410Z,57.60
2018-11-22T22:45:12.619Z,58.10
2018-11-22T22:58:19.794Z,57.70
2018-11-22T23:11:26.989Z,58.20
2018-11-22T23:37:37.168Z,58.60
2018-11-22T23:50:44.337Z,58.70
